ěÝzenÝ letovÚho provozu ╚eskÚ republiky
Letiste: LKKU Aktualizace: 07.07.2020 14:01:25  UTC
 METAR LKKU 07.07. 14:00 ...
METAR LKKU 071400Z 33008KT 270V050 9999 FEW047 19/06 Q1018=